sensor_id;sensor_type;location;lat;lon;timestamp;P1;durP1;ratioP1;P2;durP2;ratioP2
2494;SDS011;1258;48.336;14.322;2024-01-27T00:00:09;1.73;;;1.63;;
2494;SDS011;1258;48.336;14.322;2024-01-27T00:02:37;2.00;;;1.90;;
2494;SDS011;1258;48.336;14.322;2024-01-27T00:05:04;3.73;;;2.10;;
2494;SDS011;1258;48.336;14.322;2024-01-27T00:07:31;2.30;;;2.10;;
2494;SDS011;1258;48.336;14.322;2024-01-27T00:09:59;2.30;;;2.10;;
2494;SDS011;1258;48.336;14.322;2024-01-27T00:12:27;2.57;;;2.30;;
2494;SDS011;1258;48.336;14.322;2024-01-27T00:14:54;2.60;;;2.40;;
2494;SDS011;1258;48.336;14.322;2024-01-27T00:17:21;2.20;;;2.00;;
2494;SDS011;1258;48.336;14.322;2024-01-27T00:19:50;2.73;;;1.77;;
2494;SDS011;1258;48.336;14.322;2024-01-27T00:22:17;2.30;;;2.10;;
2494;SDS011;1258;48.336;14.322;2024-01-27T00:24:45;2.07;;;1.87;;
2494;SDS011;1258;48.336;14.322;2024-01-27T00:27:14;2.73;;;2.30;;
2494;SDS011;1258;48.336;14.322;2024-01-27T00:29:41;2.90;;;2.50;;
2494;SDS011;1258;48.336;14.322;2024-01-27T00:32:08;2.20;;;1.90;;
2494;SDS011;1258;48.336;14.322;2024-01-27T00:34:35;3.00;;;2.10;;
2494;SDS011;1258;48.336;14.322;2024-01-27T00:37:02;3.23;;;2.20;;
2494;SDS011;1258;48.336;14.322;2024-01-27T00:39:28;2.23;;;2.00;;
2494;SDS011;1258;48.336;14.322;2024-01-27T00:41:57;2.50;;;2.23;;
2494;SDS011;1258;48.336;14.322;2024-01-27T00:44:25;2.20;;;1.80;;
2494;SDS011;1258;48.336;14.322;2024-01-27T00:46:52;2.20;;;2.00;;
2494;SDS011;1258;48.336;14.322;2024-01-27T00:49:19;2.97;;;2.50;;
2494;SDS011;1258;48.336;14.322;2024-01-27T00:51:46;3.43;;;2.10;;
2494;SDS011;1258;48.336;14.322;2024-01-27T00:54:13;3.27;;;2.10;;
2494;SDS011;1258;48.336;14.322;2024-01-27T00:56:40;3.63;;;2.00;;
2494;SDS011;1258;48.336;14.322;2024-01-27T00:59:07;3.53;;;2.20;;
2494;SDS011;1258;48.336;14.322;2024-01-27T01:01:35;2.70;;;2.37;;
2494;SDS011;1258;48.336;14.322;2024-01-27T01:04:02;2.50;;;2.30;;
2494;SDS011;1258;48.336;14.322;2024-01-27T01:06:29;3.13;;;2.53;;
2494;SDS011;1258;48.336;14.322;2024-01-27T01:08:56;2.53;;;2.20;;
2494;SDS011;1258;48.336;14.322;2024-01-27T01:11:23;3.40;;;2.30;;
2494;SDS011;1258;48.336;14.322;2024-01-27T01:13:50;2.97;;;2.10;;
2494;SDS011;1258;48.336;14.322;2024-01-27T01:16:17;3.50;;;2.60;;
2494;SDS011;1258;48.336;14.322;2024-01-27T01:18:45;2.57;;;2.30;;
2494;SDS011;1258;48.336;14.322;2024-01-27T01:21:12;3.00;;;2.40;;
2494;SDS011;1258;48.336;14.322;2024-01-27T01:23:39;2.63;;;2.43;;
2494;SDS011;1258;48.336;14.322;2024-01-27T01:26:06;2.67;;;2.47;;
2494;SDS011;1258;48.336;14.322;2024-01-27T01:28:32;2.80;;;2.23;;
2494;SDS011;1258;48.336;14.322;2024-01-27T01:30:59;3.83;;;2.57;;
2494;SDS011;1258;48.336;14.322;2024-01-27T01:33:26;3.50;;;2.40;;
2494;SDS011;1258;48.336;14.322;2024-01-27T01:35:54;3.50;;;2.70;;
2494;SDS011;1258;48.336;14.322;2024-01-27T01:38:21;3.20;;;3.00;;
2494;SDS011;1258;48.336;14.322;2024-01-27T01:40:48;3.20;;;2.90;;
2494;SDS011;1258;48.336;14.322;2024-01-27T01:43:15;3.70;;;3.00;;
2494;SDS011;1258;48.336;14.322;2024-01-27T01:45:42;3.70;;;3.00;;
2494;SDS011;1258;48.336;14.322;2024-01-27T01:48:09;5.90;;;2.63;;
2494;SDS011;1258;48.336;14.322;2024-01-27T01:50:36;3.30;;;3.00;;
2494;SDS011;1258;48.336;14.322;2024-01-27T01:53:04;3.23;;;2.90;;
2494;SDS011;1258;48.336;14.322;2024-01-27T01:55:32;3.30;;;3.00;;
2494;SDS011;1258;48.336;14.322;2024-01-27T01:57:59;6.63;;;3.90;;
2494;SDS011;1258;48.336;14.322;2024-01-27T02:00:27;3.20;;;2.90;;
2494;SDS011;1258;48.336;14.322;2024-01-27T02:02:54;6.37;;;3.40;;
2494;SDS011;1258;48.336;14.322;2024-01-27T02:05:21;4.57;;;2.33;;
2494;SDS011;1258;48.336;14.322;2024-01-27T02:07:48;3.00;;;2.80;;
2494;SDS011;1258;48.336;14.322;2024-01-27T02:10:16;3.30;;;3.00;;
2494;SDS011;1258;48.336;14.322;2024-01-27T02:12:44;5.97;;;3.43;;
2494;SDS011;1258;48.336;14.322;2024-01-27T02:15:12;2.87;;;2.67;;
2494;SDS011;1258;48.336;14.322;2024-01-27T02:17:40;3.80;;;3.30;;
2494;SDS011;1258;48.336;14.322;2024-01-27T02:20:07;3.03;;;2.70;;
2494;SDS011;1258;48.336;14.322;2024-01-27T02:22:34;3.23;;;2.93;;
2494;SDS011;1258;48.336;14.322;2024-01-27T02:25:03;3.20;;;2.90;;
2494;SDS011;1258;48.336;14.322;2024-01-27T02:27:30;3.33;;;2.60;;
2494;SDS011;1258;48.336;14.322;2024-01-27T02:29:57;2.63;;;2.43;;
2494;SDS011;1258;48.336;14.322;2024-01-27T02:32:24;2.97;;;2.70;;
2494;SDS011;1258;48.336;14.322;2024-01-27T02:34:51;3.80;;;2.43;;
2494;SDS011;1258;48.336;14.322;2024-01-27T02:37:18;3.17;;;2.87;;
2494;SDS011;1258;48.336;14.322;2024-01-27T02:39:45;3.67;;;2.60;;
2494;SDS011;1258;48.336;14.322;2024-01-27T02:42:13;3.50;;;2.37;;
2494;SDS011;1258;48.336;14.322;2024-01-27T02:44:40;3.63;;;2.63;;
2494;SDS011;1258;48.336;14.322;2024-01-27T02:47:07;4.20;;;3.57;;
2494;SDS011;1258;48.336;14.322;2024-01-27T02:49:34;5.73;;;4.23;;
2494;SDS011;1258;48.336;14.322;2024-01-27T02:52:01;7.17;;;5.00;;
2494;SDS011;1258;48.336;14.322;2024-01-27T02:54:28;7.03;;;4.87;;
2494;SDS011;1258;48.336;14.322;2024-01-27T02:56:55;6.63;;;4.40;;
2494;SDS011;1258;48.336;14.322;2024-01-27T02:59:23;7.57;;;4.90;;
2494;SDS011;1258;48.336;14.322;2024-01-27T03:01:50;8.27;;;6.43;;
2494;SDS011;1258;48.336;14.322;2024-01-27T03:04:16;7.10;;;5.23;;
2494;SDS011;1258;48.336;14.322;2024-01-27T03:06:43;6.17;;;4.27;;
2494;SDS011;1258;48.336;14.322;2024-01-27T03:09:10;3.90;;;3.30;;
2494;SDS011;1258;48.336;14.322;2024-01-27T03:11:37;4.63;;;3.20;;
2494;SDS011;1258;48.336;14.322;2024-01-27T03:14:04;4.07;;;3.20;;
2494;SDS011;1258;48.336;14.322;2024-01-27T03:16:32;4.40;;;3.10;;
2494;SDS011;1258;48.336;14.322;2024-01-27T03:19:00;3.70;;;2.90;;
2494;SDS011;1258;48.336;14.322;2024-01-27T03:21:27;3.70;;;2.80;;
2494;SDS011;1258;48.336;14.322;2024-01-27T03:23:55;2.97;;;2.63;;
2494;SDS011;1258;48.336;14.322;2024-01-27T03:26:22;3.30;;;3.00;;
2494;SDS011;1258;48.336;14.322;2024-01-27T03:28:50;3.10;;;2.80;;
2494;SDS011;1258;48.336;14.322;2024-01-27T03:31:16;3.33;;;2.40;;
2494;SDS011;1258;48.336;14.322;2024-01-27T03:33:45;3.50;;;3.10;;
2494;SDS011;1258;48.336;14.322;2024-01-27T03:36:12;4.10;;;3.20;;
2494;SDS011;1258;48.336;14.322;2024-01-27T03:38:40;3.17;;;2.80;;
2494;SDS011;1258;48.336;14.322;2024-01-27T03:41:07;3.63;;;3.33;;
2494;SDS011;1258;48.336;14.322;2024-01-27T03:43:34;3.73;;;3.40;;
2494;SDS011;1258;48.336;14.322;2024-01-27T03:46:01;3.47;;;3.17;;
2494;SDS011;1258;48.336;14.322;2024-01-27T03:48:28;2.97;;;2.53;;
2494;SDS011;1258;48.336;14.322;2024-01-27T03:50:56;3.23;;;2.90;;
2494;SDS011;1258;48.336;14.322;2024-01-27T03:53:23;3.17;;;2.87;;
2494;SDS011;1258;48.336;14.322;2024-01-27T03:55:50;3.40;;;3.00;;
2494;SDS011;1258;48.336;14.322;2024-01-27T03:58:17;4.70;;;3.17;;
2494;SDS011;1258;48.336;14.322;2024-01-27T04:00:44;5.40;;;3.70;;
2494;SDS011;1258;48.336;14.322;2024-01-27T04:03:11;3.47;;;3.17;;
2494;SDS011;1258;48.336;14.322;2024-01-27T04:05:38;4.80;;;3.60;;
2494;SDS011;1258;48.336;14.322;2024-01-27T04:08:06;4.53;;;4.00;;
2494;SDS011;1258;48.336;14.322;2024-01-27T04:10:33;3.40;;;3.00;;
2494;SDS011;1258;48.336;14.322;2024-01-27T04:13:00;4.50;;;3.20;;
2494;SDS011;1258;48.336;14.322;2024-01-27T04:15:27;4.90;;;3.67;;
2494;SDS011;1258;48.336;14.322;2024-01-27T04:17:54;3.73;;;3.30;;
2494;SDS011;1258;48.336;14.322;2024-01-27T04:20:21;3.87;;;3.33;;
2494;SDS011;1258;48.336;14.322;2024-01-27T04:22:48;3.73;;;3.17;;
2494;SDS011;1258;48.336;14.322;2024-01-27T04:25:16;4.20;;;3.20;;
2494;SDS011;1258;48.336;14.322;2024-01-27T04:27:44;3.83;;;3.53;;
2494;SDS011;1258;48.336;14.322;2024-01-27T04:30:11;3.67;;;3.37;;
2494;SDS011;1258;48.336;14.322;2024-01-27T04:32:38;6.63;;;3.60;;
2494;SDS011;1258;48.336;14.322;2024-01-27T04:35:08;4.87;;;3.77;;
2494;SDS011;1258;48.336;14.322;2024-01-27T04:37:35;3.37;;;3.00;;
2494;SDS011;1258;48.336;14.322;2024-01-27T04:40:03;3.40;;;3.10;;
2494;SDS011;1258;48.336;14.322;2024-01-27T04:42:33;6.43;;;3.70;;
2494;SDS011;1258;48.336;14.322;2024-01-27T04:45:00;3.83;;;2.83;;
2494;SDS011;1258;48.336;14.322;2024-01-27T04:47:27;4.67;;;3.30;;
2494;SDS011;1258;48.336;14.322;2024-01-27T04:49:54;3.33;;;3.03;;
2494;SDS011;1258;48.336;14.322;2024-01-27T04:52:20;3.10;;;2.80;;
2494;SDS011;1258;48.336;14.322;2024-01-27T04:54:47;3.77;;;2.90;;
2494;SDS011;1258;48.336;14.322;2024-01-27T04:57:14;3.97;;;3.57;;
2494;SDS011;1258;48.336;14.322;2024-01-27T04:59:43;4.70;;;3.63;;
2494;SDS011;1258;48.336;14.322;2024-01-27T05:02:11;4.57;;;3.40;;
2494;SDS011;1258;48.336;14.322;2024-01-27T05:04:38;5.40;;;3.53;;
2494;SDS011;1258;48.336;14.322;2024-01-27T05:07:05;3.83;;;3.53;;
2494;SDS011;1258;48.336;14.322;2024-01-27T05:09:33;3.53;;;3.23;;
2494;SDS011;1258;48.336;14.322;2024-01-27T05:12:00;3.87;;;3.57;;
2494;SDS011;1258;48.336;14.322;2024-01-27T05:14:27;6.13;;;3.67;;
2494;SDS011;1258;48.336;14.322;2024-01-27T05:16:56;4.00;;;3.50;;
2494;SDS011;1258;48.336;14.322;2024-01-27T05:19:23;4.73;;;4.23;;
2494;SDS011;1258;48.336;14.322;2024-01-27T05:21:49;4.30;;;3.90;;
2494;SDS011;1258;48.336;14.322;2024-01-27T05:24:16;4.17;;;3.77;;
2494;SDS011;1258;48.336;14.322;2024-01-27T05:26:43;4.03;;;3.70;;
2494;SDS011;1258;48.336;14.322;2024-01-27T05:29:10;4.60;;;4.20;;
2494;SDS011;1258;48.336;14.322;2024-01-27T05:31:37;6.67;;;3.67;;
2494;SDS011;1258;48.336;14.322;2024-01-27T05:34:05;4.63;;;4.20;;
2494;SDS011;1258;48.336;14.322;2024-01-27T05:36:32;5.67;;;3.63;;
2494;SDS011;1258;48.336;14.322;2024-01-27T05:39:02;4.13;;;3.73;;
2494;SDS011;1258;48.336;14.322;2024-01-27T05:41:29;4.57;;;3.67;;
2494;SDS011;1258;48.336;14.322;2024-01-27T05:43:56;3.50;;;3.20;;
2494;SDS011;1258;48.336;14.322;2024-01-27T05:46:23;4.00;;;3.70;;
2494;SDS011;1258;48.336;14.322;2024-01-27T05:48:50;4.13;;;3.73;;
2494;SDS011;1258;48.336;14.322;2024-01-27T05:51:20;5.20;;;4.10;;
2494;SDS011;1258;48.336;14.322;2024-01-27T05:53:49;4.73;;;3.07;;
2494;SDS011;1258;48.336;14.322;2024-01-27T05:56:16;4.47;;;3.97;;
2494;SDS011;1258;48.336;14.322;2024-01-27T05:58:43;4.17;;;3.70;;
2494;SDS011;1258;48.336;14.322;2024-01-27T06:01:10;4.30;;;3.90;;
2494;SDS011;1258;48.336;14.322;2024-01-27T06:03:37;4.10;;;3.80;;
2494;SDS011;1258;48.336;14.322;2024-01-27T06:06:07;5.20;;;3.83;;
2494;SDS011;1258;48.336;14.322;2024-01-27T06:08:35;4.60;;;4.13;;
2494;SDS011;1258;48.336;14.322;2024-01-27T06:11:02;4.47;;;4.07;;
2494;SDS011;1258;48.336;14.322;2024-01-27T06:13:29;4.47;;;3.97;;
2494;SDS011;1258;48.336;14.322;2024-01-27T06:15:57;4.37;;;4.00;;
2494;SDS011;1258;48.336;14.322;2024-01-27T06:18:25;4.90;;;4.07;;
2494;SDS011;1258;48.336;14.322;2024-01-27T06:20:52;4.93;;;4.23;;
2494;SDS011;1258;48.336;14.322;2024-01-27T06:23:18;5.33;;;4.63;;
2494;SDS011;1258;48.336;14.322;2024-01-27T06:25:47;6.17;;;4.17;;
2494;SDS011;1258;48.336;14.322;2024-01-27T06:28:14;4.20;;;3.80;;
2494;SDS011;1258;48.336;14.322;2024-01-27T06:30:40;4.47;;;3.77;;
2494;SDS011;1258;48.336;14.322;2024-01-27T06:33:08;5.33;;;4.03;;
2494;SDS011;1258;48.336;14.322;2024-01-27T06:35:34;5.40;;;4.43;;
2494;SDS011;1258;48.336;14.322;2024-01-27T06:38:01;5.27;;;4.50;;
2494;SDS011;1258;48.336;14.322;2024-01-27T06:40:28;6.03;;;4.03;;
2494;SDS011;1258;48.336;14.322;2024-01-27T06:42:57;4.37;;;3.97;;
2494;SDS011;1258;48.336;14.322;2024-01-27T06:45:23;6.23;;;4.77;;
2494;SDS011;1258;48.336;14.322;2024-01-27T06:47:50;5.10;;;4.50;;
2494;SDS011;1258;48.336;14.322;2024-01-27T06:50:17;5.07;;;4.57;;
2494;SDS011;1258;48.336;14.322;2024-01-27T06:52:44;7.57;;;4.80;;
2494;SDS011;1258;48.336;14.322;2024-01-27T06:55:12;5.10;;;4.60;;
2494;SDS011;1258;48.336;14.322;2024-01-27T06:57:39;6.07;;;5.37;;
2494;SDS011;1258;48.336;14.322;2024-01-27T07:00:08;4.90;;;4.50;;
2494;SDS011;1258;48.336;14.322;2024-01-27T07:02:39;7.60;;;5.50;;
2494;SDS011;1258;48.336;14.322;2024-01-27T07:05:06;6.13;;;5.17;;
2494;SDS011;1258;48.336;14.322;2024-01-27T07:07:34;5.73;;;5.00;;
2494;SDS011;1258;48.336;14.322;2024-01-27T07:10:01;5.63;;;4.70;;
2494;SDS011;1258;48.336;14.322;2024-01-27T07:12:28;6.27;;;5.13;;
2494;SDS011;1258;48.336;14.322;2024-01-27T07:14:55;5.87;;;5.07;;
2494;SDS011;1258;48.336;14.322;2024-01-27T07:17:26;5.30;;;4.77;;
2494;SDS011;1258;48.336;14.322;2024-01-27T07:19:53;5.83;;;4.97;;
2494;SDS011;1258;48.336;14.322;2024-01-27T07:22:20;5.90;;;4.63;;
2494;SDS011;1258;48.336;14.322;2024-01-27T07:24:47;6.07;;;5.10;;
2494;SDS011;1258;48.336;14.322;2024-01-27T07:27:16;5.23;;;4.73;;
2494;SDS011;1258;48.336;14.322;2024-01-27T07:29:43;9.03;;;5.50;;
2494;SDS011;1258;48.336;14.322;2024-01-27T07:32:10;5.70;;;5.20;;
2494;SDS011;1258;48.336;14.322;2024-01-27T07:34:40;7.90;;;5.80;;
2494;SDS011;1258;48.336;14.322;2024-01-27T07:37:07;4.90;;;4.50;;
2494;SDS011;1258;48.336;14.322;2024-01-27T07:39:34;8.23;;;5.00;;
2494;SDS011;1258;48.336;14.322;2024-01-27T07:42:01;6.27;;;5.67;;
2494;SDS011;1258;48.336;14.322;2024-01-27T07:44:28;6.33;;;4.87;;
2494;SDS011;1258;48.336;14.322;2024-01-27T07:46:55;5.00;;;4.50;;
2494;SDS011;1258;48.336;14.322;2024-01-27T07:49:22;7.87;;;5.23;;
2494;SDS011;1258;48.336;14.322;2024-01-27T07:51:50;6.33;;;5.03;;
2494;SDS011;1258;48.336;14.322;2024-01-27T07:54:17;6.00;;;5.40;;
2494;SDS011;1258;48.336;14.322;2024-01-27T07:56:44;5.70;;;5.20;;
2494;SDS011;1258;48.336;14.322;2024-01-27T07:59:11;6.17;;;5.10;;
2494;SDS011;1258;48.336;14.322;2024-01-27T08:01:40;5.70;;;4.93;;
2494;SDS011;1258;48.336;14.322;2024-01-27T08:04:07;5.73;;;5.13;;
2494;SDS011;1258;48.336;14.322;2024-01-27T08:06:34;7.43;;;5.00;;
2494;SDS011;1258;48.336;14.322;2024-01-27T08:09:12;5.40;;;4.97;;
2494;SDS011;1258;48.336;14.322;2024-01-27T08:11:39;7.63;;;5.07;;
2494;SDS011;1258;48.336;14.322;2024-01-27T08:14:06;6.40;;;5.43;;
2494;SDS011;1258;48.336;14.322;2024-01-27T08:16:33;7.17;;;5.63;;
2494;SDS011;1258;48.336;14.322;2024-01-27T08:19:00;7.70;;;5.23;;
2494;SDS011;1258;48.336;14.322;2024-01-27T08:21:27;6.17;;;5.53;;
2494;SDS011;1258;48.336;14.322;2024-01-27T08:23:54;6.70;;;5.07;;
2494;SDS011;1258;48.336;14.322;2024-01-27T08:26:22;5.60;;;4.97;;
2494;SDS011;1258;48.336;14.322;2024-01-27T08:28:49;6.37;;;5.77;;
2494;SDS011;1258;48.336;14.322;2024-01-27T08:31:16;5.90;;;4.43;;
2494;SDS011;1258;48.336;14.322;2024-01-27T08:33:43;5.40;;;4.90;;
2494;SDS011;1258;48.336;14.322;2024-01-27T08:36:12;10.50;;;5.50;;
2494;SDS011;1258;48.336;14.322;2024-01-27T08:38:40;5.93;;;5.20;;
2494;SDS011;1258;48.336;14.322;2024-01-27T08:41:06;5.97;;;5.37;;
2494;SDS011;1258;48.336;14.322;2024-01-27T08:43:35;4.67;;;4.13;;
2494;SDS011;1258;48.336;14.322;2024-01-27T08:46:02;5.80;;;4.50;;
2494;SDS011;1258;48.336;14.322;2024-01-27T08:48:29;7.03;;;4.70;;
2494;SDS011;1258;48.336;14.322;2024-01-27T08:50:56;5.13;;;4.63;;
2494;SDS011;1258;48.336;14.322;2024-01-27T08:53:23;6.57;;;5.27;;
2494;SDS011;1258;48.336;14.322;2024-01-27T08:55:49;5.73;;;4.47;;
2494;SDS011;1258;48.336;14.322;2024-01-27T08:58:16;7.43;;;5.57;;
2494;SDS011;1258;48.336;14.322;2024-01-27T09:00:45;5.47;;;4.70;;
2494;SDS011;1258;48.336;14.322;2024-01-27T09:03:11;6.10;;;5.20;;
2494;SDS011;1258;48.336;14.322;2024-01-27T09:05:39;8.80;;;5.27;;
2494;SDS011;1258;48.336;14.322;2024-01-27T09:08:09;6.17;;;4.60;;
2494;SDS011;1258;48.336;14.322;2024-01-27T09:10:35;6.33;;;5.73;;
2494;SDS011;1258;48.336;14.322;2024-01-27T09:13:02;5.50;;;4.90;;
2494;SDS011;1258;48.336;14.322;2024-01-27T09:15:29;4.67;;;4.27;;
2494;SDS011;1258;48.336;14.322;2024-01-27T09:17:58;7.70;;;5.20;;
2494;SDS011;1258;48.336;14.322;2024-01-27T09:20:25;6.47;;;5.50;;
2494;SDS011;1258;48.336;14.322;2024-01-27T09:22:52;8.50;;;5.07;;
2494;SDS011;1258;48.336;14.322;2024-01-27T09:25:19;6.30;;;5.70;;
2494;SDS011;1258;48.336;14.322;2024-01-27T09:27:46;7.80;;;5.83;;
2494;SDS011;1258;48.336;14.322;2024-01-27T09:30:13;10.20;;;5.30;;
2494;SDS011;1258;48.336;14.322;2024-01-27T09:32:40;7.00;;;5.53;;
2494;SDS011;1258;48.336;14.322;2024-01-27T09:35:08;7.27;;;5.67;;
2494;SDS011;1258;48.336;14.322;2024-01-27T09:37:35;8.00;;;6.23;;
2494;SDS011;1258;48.336;14.322;2024-01-27T09:40:03;6.73;;;5.90;;
2494;SDS011;1258;48.336;14.322;2024-01-27T09:42:31;7.30;;;6.23;;
2494;SDS011;1258;48.336;14.322;2024-01-27T09:45:00;5.23;;;4.73;;
2494;SDS011;1258;48.336;14.322;2024-01-27T09:47:28;8.10;;;5.70;;
2494;SDS011;1258;48.336;14.322;2024-01-27T09:49:55;6.87;;;5.60;;
2494;SDS011;1258;48.336;14.322;2024-01-27T09:52:24;7.67;;;5.20;;
2494;SDS011;1258;48.336;14.322;2024-01-27T09:54:51;6.20;;;5.20;;
2494;SDS011;1258;48.336;14.322;2024-01-27T09:57:18;6.40;;;5.23;;
2494;SDS011;1258;48.336;14.322;2024-01-27T09:59:46;7.17;;;5.67;;
2494;SDS011;1258;48.336;14.322;2024-01-27T10:02:15;6.03;;;5.43;;
2494;SDS011;1258;48.336;14.322;2024-01-27T10:04:43;6.83;;;4.77;;
2494;SDS011;1258;48.336;14.322;2024-01-27T10:07:14;6.00;;;5.07;;
2494;SDS011;1258;48.336;14.322;2024-01-27T10:09:42;6.67;;;5.20;;
2494;SDS011;1258;48.336;14.322;2024-01-27T10:12:09;6.07;;;5.27;;
2494;SDS011;1258;48.336;14.322;2024-01-27T10:14:39;5.13;;;4.63;;
2494;SDS011;1258;48.336;14.322;2024-01-27T10:17:08;6.40;;;5.20;;
2494;SDS011;1258;48.336;14.322;2024-01-27T10:19:36;5.60;;;5.10;;
2494;SDS011;1258;48.336;14.322;2024-01-27T10:22:03;6.27;;;4.90;;
2494;SDS011;1258;48.336;14.322;2024-01-27T10:24:31;6.47;;;5.80;;
2494;SDS011;1258;48.336;14.322;2024-01-27T10:27:00;6.13;;;5.53;;
2494;SDS011;1258;48.336;14.322;2024-01-27T10:29:28;5.43;;;4.93;;
2494;SDS011;1258;48.336;14.322;2024-01-27T10:31:55;6.00;;;5.30;;
2494;SDS011;1258;48.336;14.322;2024-01-27T10:34:22;5.87;;;5.27;;
2494;SDS011;1258;48.336;14.322;2024-01-27T10:36:49;6.00;;;5.40;;
2494;SDS011;1258;48.336;14.322;2024-01-27T10:39:16;5.33;;;4.90;;
2494;SDS011;1258;48.336;14.322;2024-01-27T10:41:44;6.73;;;5.43;;
2494;SDS011;1258;48.336;14.322;2024-01-27T10:44:14;5.57;;;5.03;;
2494;SDS011;1258;48.336;14.322;2024-01-27T10:46:42;5.70;;;5.00;;
2494;SDS011;1258;48.336;14.322;2024-01-27T10:49:12;7.20;;;5.40;;
2494;SDS011;1258;48.336;14.322;2024-01-27T10:51:42;5.50;;;5.00;;
2494;SDS011;1258;48.336;14.322;2024-01-27T10:54:18;8.23;;;5.20;;
2494;SDS011;1258;48.336;14.322;2024-01-27T10:56:49;5.83;;;5.20;;
2494;SDS011;1258;48.336;14.322;2024-01-27T10:59:21;5.33;;;4.80;;
2494;SDS011;1258;48.336;14.322;2024-01-27T11:01:48;5.70;;;5.07;;
2494;SDS011;1258;48.336;14.322;2024-01-27T11:04:19;6.00;;;5.30;;
2494;SDS011;1258;48.336;14.322;2024-01-27T11:06:46;5.07;;;4.57;;
2494;SDS011;1258;48.336;14.322;2024-01-27T11:09:14;5.73;;;4.53;;
2494;SDS011;1258;48.336;14.322;2024-01-27T11:11:42;5.63;;;4.80;;
2494;SDS011;1258;48.336;14.322;2024-01-27T11:14:10;5.10;;;4.60;;
2494;SDS011;1258;48.336;14.322;2024-01-27T11:16:39;8.70;;;4.70;;
2494;SDS011;1258;48.336;14.322;2024-01-27T11:19:09;7.30;;;4.80;;
2494;SDS011;1258;48.336;14.322;2024-01-27T11:21:37;4.60;;;4.10;;
2494;SDS011;1258;48.336;14.322;2024-01-27T11:24:12;6.63;;;4.63;;
2494;SDS011;1258;48.336;14.322;2024-01-27T11:26:40;4.97;;;4.30;;
2494;SDS011;1258;48.336;14.322;2024-01-27T11:29:07;7.43;;;4.37;;
2494;SDS011;1258;48.336;14.322;2024-01-27T11:31:34;5.00;;;4.07;;
2494;SDS011;1258;48.336;14.322;2024-01-27T11:34:03;7.47;;;4.57;;
2494;SDS011;1258;48.336;14.322;2024-01-27T11:36:37;5.53;;;4.47;;
2494;SDS011;1258;48.336;14.322;2024-01-27T11:39:04;6.67;;;4.77;;
2494;SDS011;1258;48.336;14.322;2024-01-27T11:41:31;7.53;;;5.07;;
2494;SDS011;1258;48.336;14.322;2024-01-27T11:43:58;4.47;;;4.07;;
2494;SDS011;1258;48.336;14.322;2024-01-27T11:46:26;6.37;;;4.47;;
2494;SDS011;1258;48.336;14.322;2024-01-27T11:48:53;7.07;;;4.20;;
2494;SDS011;1258;48.336;14.322;2024-01-27T11:51:21;4.97;;;4.40;;
2494;SDS011;1258;48.336;14.322;2024-01-27T11:53:50;6.10;;;4.60;;
2494;SDS011;1258;48.336;14.322;2024-01-27T11:56:17;4.47;;;4.07;;
2494;SDS011;1258;48.336;14.322;2024-01-27T11:58:46;7.67;;;4.30;;
2494;SDS011;1258;48.336;14.322;2024-01-27T12:01:14;5.20;;;4.37;;
2494;SDS011;1258;48.336;14.322;2024-01-27T12:03:41;5.87;;;4.10;;
2494;SDS011;1258;48.336;14.322;2024-01-27T12:06:09;4.97;;;4.10;;
2494;SDS011;1258;48.336;14.322;2024-01-27T12:08:37;4.37;;;3.67;;
2494;SDS011;1258;48.336;14.322;2024-01-27T12:11:05;4.10;;;3.70;;
2494;SDS011;1258;48.336;14.322;2024-01-27T12:13:32;4.23;;;3.83;;
2494;SDS011;1258;48.336;14.322;2024-01-27T12:16:00;5.53;;;4.33;;
2494;SDS011;1258;48.336;14.322;2024-01-27T12:18:27;6.30;;;3.83;;
2494;SDS011;1258;48.336;14.322;2024-01-27T12:20:55;8.03;;;3.87;;
2494;SDS011;1258;48.336;14.322;2024-01-27T12:23:23;4.60;;;3.70;;
2494;SDS011;1258;48.336;14.322;2024-01-27T12:25:53;5.00;;;4.50;;
2494;SDS011;1258;48.336;14.322;2024-01-27T12:28:22;5.43;;;3.57;;
2494;SDS011;1258;48.336;14.322;2024-01-27T12:30:49;5.20;;;4.20;;
2494;SDS011;1258;48.336;14.322;2024-01-27T12:33:18;4.77;;;4.00;;
2494;SDS011;1258;48.336;14.322;2024-01-27T12:35:49;4.03;;;3.60;;
2494;SDS011;1258;48.336;14.322;2024-01-27T12:38:17;3.77;;;3.30;;
2494;SDS011;1258;48.336;14.322;2024-01-27T12:40:44;8.13;;;4.30;;
2494;SDS011;1258;48.336;14.322;2024-01-27T12:43:12;7.80;;;4.77;;
2494;SDS011;1258;48.336;14.322;2024-01-27T12:45:40;4.33;;;3.70;;
2494;SDS011;1258;48.336;14.322;2024-01-27T12:48:07;4.73;;;3.70;;
2494;SDS011;1258;48.336;14.322;2024-01-27T12:50:34;6.17;;;3.90;;
2494;SDS011;1258;48.336;14.322;2024-01-27T12:53:01;3.60;;;3.30;;
2494;SDS011;1258;48.336;14.322;2024-01-27T12:55:28;5.73;;;4.17;;
2494;SDS011;1258;48.336;14.322;2024-01-27T12:57:55;3.93;;;3.57;;
2494;SDS011;1258;48.336;14.322;2024-01-27T13:00:24;5.20;;;3.30;;
2494;SDS011;1258;48.336;14.322;2024-01-27T13:02:50;4.17;;;3.50;;
2494;SDS011;1258;48.336;14.322;2024-01-27T13:05:18;6.97;;;3.67;;
2494;SDS011;1258;48.336;14.322;2024-01-27T13:07:45;3.40;;;3.10;;
2494;SDS011;1258;48.336;14.322;2024-01-27T13:10:13;4.50;;;3.53;;
2494;SDS011;1258;48.336;14.322;2024-01-27T13:12:40;4.90;;;3.60;;
2494;SDS011;1258;48.336;14.322;2024-01-27T13:15:07;4.97;;;3.70;;
2494;SDS011;1258;48.336;14.322;2024-01-27T13:17:37;5.77;;;4.00;;
2494;SDS011;1258;48.336;14.322;2024-01-27T13:20:04;5.00;;;3.60;;
2494;SDS011;1258;48.336;14.322;2024-01-27T13:22:32;3.97;;;3.57;;
2494;SDS011;1258;48.336;14.322;2024-01-27T13:24:59;4.53;;;3.60;;
2494;SDS011;1258;48.336;14.322;2024-01-27T13:27:29;7.40;;;3.37;;
2494;SDS011;1258;48.336;14.322;2024-01-27T13:29:56;5.70;;;4.07;;
2494;SDS011;1258;48.336;14.322;2024-01-27T13:32:23;6.73;;;4.00;;
2494;SDS011;1258;48.336;14.322;2024-01-27T13:34:52;4.50;;;3.33;;
2494;SDS011;1258;48.336;14.322;2024-01-27T13:37:19;6.07;;;4.40;;
2494;SDS011;1258;48.336;14.322;2024-01-27T13:39:47;4.77;;;3.97;;
2494;SDS011;1258;48.336;14.322;2024-01-27T13:42:14;6.60;;;3.37;;
2494;SDS011;1258;48.336;14.322;2024-01-27T13:44:41;5.03;;;3.53;;
2494;SDS011;1258;48.336;14.322;2024-01-27T13:47:08;4.17;;;3.70;;
2494;SDS011;1258;48.336;14.322;2024-01-27T13:49:35;6.07;;;4.00;;
2494;SDS011;1258;48.336;14.322;2024-01-27T13:52:05;5.37;;;3.13;;
2494;SDS011;1258;48.336;14.322;2024-01-27T13:54:32;4.27;;;3.23;;
2494;SDS011;1258;48.336;14.322;2024-01-27T13:57:00;4.10;;;3.13;;
2494;SDS011;1258;48.336;14.322;2024-01-27T13:59:27;5.50;;;3.70;;
2494;SDS011;1258;48.336;14.322;2024-01-27T14:01:54;4.80;;;3.07;;
2494;SDS011;1258;48.336;14.322;2024-01-27T14:04:22;4.43;;;3.10;;
2494;SDS011;1258;48.336;14.322;2024-01-27T14:06:49;4.30;;;3.20;;
2494;SDS011;1258;48.336;14.322;2024-01-27T14:09:17;5.70;;;3.60;;
2494;SDS011;1258;48.336;14.322;2024-01-27T14:11:44;4.50;;;3.30;;
2494;SDS011;1258;48.336;14.322;2024-01-27T14:14:11;4.73;;;3.60;;
2494;SDS011;1258;48.336;14.322;2024-01-27T14:16:38;5.80;;;3.60;;
2494;SDS011;1258;48.336;14.322;2024-01-27T14:19:06;4.10;;;2.73;;
2494;SDS011;1258;48.336;14.322;2024-01-27T14:21:33;5.63;;;3.37;;
2494;SDS011;1258;48.336;14.322;2024-01-27T14:24:02;4.00;;;2.80;;
2494;SDS011;1258;48.336;14.322;2024-01-27T14:26:32;4.70;;;3.57;;
2494;SDS011;1258;48.336;14.322;2024-01-27T14:29:00;4.87;;;3.40;;
2494;SDS011;1258;48.336;14.322;2024-01-27T14:31:27;8.80;;;3.57;;
2494;SDS011;1258;48.336;14.322;2024-01-27T14:33:55;5.50;;;3.10;;
2494;SDS011;1258;48.336;14.322;2024-01-27T14:36:22;3.70;;;3.40;;
2494;SDS011;1258;48.336;14.322;2024-01-27T14:38:49;8.97;;;4.17;;
2494;SDS011;1258;48.336;14.322;2024-01-27T14:41:16;5.27;;;2.97;;
2494;SDS011;1258;48.336;14.322;2024-01-27T14:43:45;4.70;;;3.13;;
2494;SDS011;1258;48.336;14.322;2024-01-27T14:46:14;3.60;;;2.93;;
2494;SDS011;1258;48.336;14.322;2024-01-27T14:48:41;5.40;;;3.07;;
2494;SDS011;1258;48.336;14.322;2024-01-27T14:51:11;4.27;;;3.50;;
2494;SDS011;1258;48.336;14.322;2024-01-27T14:53:38;5.53;;;3.07;;
2494;SDS011;1258;48.336;14.322;2024-01-27T14:56:05;4.23;;;3.10;;
2494;SDS011;1258;48.336;14.322;2024-01-27T14:58:32;6.90;;;3.13;;
2494;SDS011;1258;48.336;14.322;2024-01-27T15:01:00;5.33;;;2.87;;